Time;durP1;ratioP1;P1;durP2;ratioP2;P2;SDS_P1;SDS_P2;PMS_P1;PMS_P2;Temp;Humidity;BMP_temperature;BMP_pressure;BME280_temperature;BME280_humidity;BME280_pressure;Samples;Min_cycle;Max_cycle;Signal;HPM_P1;HPM_P2
2023/01/17 00:00:02;;;;;;;1.83;1.40;;;15.00;50.60;;;;;;5089904;27;45180;-77
2023/01/17 00:02:30;;;;;;;2.13;1.50;;;15.10;50.60;;;;;;5090161;27;45188;-77
2023/01/17 00:10:27;;;;;;;2.08;1.73;;;15.00;50.50;;;;;;5087136;28;45301;-78
2023/01/17 00:12:54;;;;;;;2.03;1.60;;;15.00;50.60;;;;;;5089785;27;45315;-77
2023/01/17 00:15:22;;;;;;;1.95;1.42;;;15.00;50.60;;;;;;5089894;27;45382;-77
2023/01/17 00:17:49;;;;;;;1.52;1.40;;;15.00;50.60;;;;;;5089672;27;45853;-77
2023/01/17 00:26:03;;;;;;;2.28;1.33;;;15.00;50.60;;;;;;5087463;28;45339;-78
2023/01/17 01:35:12;;;;;;;1.50;1.08;;;14.90;50.70;;;;;;5086026;28;45195;-77
2023/01/17 01:37:39;;;;;;;1.27;1.17;;;14.90;50.80;;;;;;5088665;27;45229;-77
2023/01/17 01:40:07;;;;;;;0.98;0.90;;;14.90;50.70;;;;;;5088760;27;45323;-77
2023/01/17 01:42:35;;;;;;;1.75;1.05;;;14.90;50.80;;;;;;5087260;27;46709;-77
2023/01/17 01:45:03;;;;;;;1.30;1.17;;;14.90;50.80;;;;;;5088338;27;45201;-77
2023/01/17 01:47:31;;;;;;;1.13;1.02;;;14.90;50.80;;;;;;5087693;27;45191;-78
2023/01/17 01:49:58;;;;;;;1.00;0.90;;;14.90;50.70;;;;;;5088701;27;45272;-77
2023/01/17 01:52:25;;;;;;;1.02;0.93;;;14.80;50.60;;;;;;5088155;27;46364;-77
2023/01/17 01:54:53;;;;;;;1.05;0.98;;;14.90;50.70;;;;;;5088286;27;45197;-78
2023/01/17 01:57:21;;;;;;;1.40;1.05;;;14.90;50.70;;;;;;5088362;27;45177;-77
2023/01/17 01:59:52;;;;;;;2.33;1.10;;;14.80;50.60;;;;;;5088516;27;45355;-77
2023/01/17 02:02:19;;;;;;;1.20;1.10;;;14.80;50.70;;;;;;5087902;27;45397;-77
2023/01/17 02:04:46;;;;;;;1.55;1.20;;;14.80;50.60;;;;;;5088073;27;45301;-77
2023/01/17 02:07:15;;;;;;;1.92;1.10;;;14.80;50.60;;;;;;5088085;27;45291;-77
2023/01/17 02:09:41;;;;;;;0.98;0.82;;;14.80;50.60;;;;;;5088332;27;45395;-78
2023/01/17 02:12:08;;;;;;;1.00;0.90;;;14.80;50.60;;;;;;5087791;27;45441;-77
2023/01/17 02:14:35;;;;;;;1.83;1.00;;;14.80;50.70;;;;;;5087867;27;45099;-77
2023/01/17 02:17:10;;;;;;;0.98;0.90;;;14.80;50.60;;;;;;5088047;27;45276;-77
2023/01/17 02:20:04;;;;;;;1.70;0.90;;;14.80;50.60;;;;;;5088126;27;45352;-77
2023/01/17 02:22:56;;;;;;;1.13;0.80;;;14.80;50.50;;;;;;5087682;27;47655;-77
2023/01/17 02:25:34;;;;;;;1.20;1.00;;;14.80;50.50;;;;;;5087808;27;45260;-77
2023/01/17 02:28:10;;;;;;;1.15;1.02;;;14.80;50.60;;;;;;5087832;27;45210;-78
2023/01/17 02:30:38;;;;;;;0.65;0.63;;;14.80;50.60;;;;;;5088093;27;45376;-77
2023/01/17 02:33:14;;;;;;;1.17;1.00;;;14.80;50.60;;;;;;5087553;27;46777;-77
2023/01/17 02:35:47;;;;;;;1.52;0.82;;;14.80;50.60;;;;;;5087431;27;45438;-77
2023/01/17 02:38:18;;;;;;;0.82;0.80;;;14.80;50.60;;;;;;5087673;27;45228;-77
2023/01/17 02:40:47;;;;;;;1.00;0.90;;;14.80;50.60;;;;;;5085098;27;45206;-76
2023/01/17 02:43:15;;;;;;;1.02;0.80;;;14.80;50.60;;;;;;5087391;27;45395;-77
2023/01/17 02:45:44;;;;;;;0.57;0.57;;;14.80;50.60;;;;;;5087348;27;45125;-77
2023/01/17 02:48:12;;;;;;;0.50;0.50;;;14.80;50.60;;;;;;5087462;27;45200;-77
2023/01/17 02:50:52;;;;;;;1.25;1.10;;;14.80;50.50;;;;;;5087569;27;45455;-77
2023/01/17 02:53:28;;;;;;;1.25;0.75;;;14.80;50.60;;;;;;5087379;27;45256;-77
2023/01/17 02:55:57;;;;;;;0.70;0.70;;;14.80;50.50;;;;;;5087383;27;45323;-76
2023/01/17 02:58:34;;;;;;;0.95;0.70;;;14.80;50.60;;;;;;5087448;27;45348;-77
2023/01/17 03:01:08;;;;;;;0.85;0.80;;;14.80;50.50;;;;;;5084593;27;45394;-77
2023/01/17 03:03:37;;;;;;;0.88;0.88;;;14.80;50.50;;;;;;5087011;27;46653;-77
2023/01/17 03:06:10;;;;;;;1.17;0.93;;;14.80;50.50;;;;;;5087059;27;45178;-77
2023/01/17 03:08:37;;;;;;;0.70;0.70;;;14.80;50.50;;;;;;5087187;27;45239;-77
2023/01/17 03:11:04;;;;;;;0.80;0.80;;;14.80;50.50;;;;;;5087542;27;45403;-76
2023/01/17 03:13:31;;;;;;;1.08;0.82;;;14.80;50.50;;;;;;5086965;27;46929;-76
2023/01/17 03:15:58;;;;;;;1.10;0.95;;;14.80;50.50;;;;;;5086250;27;45291;-77
2023/01/17 03:18:26;;;;;;;0.70;0.70;;;14.80;50.50;;;;;;5086767;27;45395;-77
2023/01/17 03:20:53;;;;;;;0.75;0.75;;;14.80;50.50;;;;;;5087151;27;45117;-76
2023/01/17 03:23:19;;;;;;;0.82;0.80;;;14.80;50.50;;;;;;5086548;27;47280;-77
2023/01/17 03:25:46;;;;;;;1.10;1.00;;;14.80;50.50;;;;;;5086875;27;45224;-77
2023/01/17 03:28:13;;;;;;;0.65;0.60;;;14.80;50.50;;;;;;5086952;27;45300;-77
2023/01/17 03:30:40;;;;;;;0.80;0.80;;;14.80;50.50;;;;;;5087029;27;45228;-76
2023/01/17 03:33:07;;;;;;;1.10;0.82;;;14.80;50.50;;;;;;5086641;27;46729;-77
2023/01/17 03:35:35;;;;;;;1.33;1.05;;;14.80;50.50;;;;;;5086749;27;45195;-77
2023/01/17 03:38:01;;;;;;;0.65;0.65;;;14.80;50.50;;;;;;5086899;27;45330;-77
2023/01/17 03:40:28;;;;;;;1.33;0.70;;;14.80;50.50;;;;;;5086958;27;45290;-77
2023/01/17 03:42:55;;;;;;;1.00;0.80;;;14.80;50.50;;;;;;5086414;27;45432;-77
2023/01/17 03:45:22;;;;;;;0.68;0.65;;;14.80;50.50;;;;;;5086585;27;45256;-77
2023/01/17 03:47:49;;;;;;;1.00;0.60;;;14.80;50.50;;;;;;5086749;27;45180;-77
2023/01/17 03:50:16;;;;;;;1.60;0.73;;;14.80;50.50;;;;;;5086817;27;45336;-76
2023/01/17 03:52:44;;;;;;;0.60;0.60;;;14.80;50.50;;;;;;5086414;27;45352;-77
2023/01/17 03:55:11;;;;;;;0.93;0.70;;;14.80;50.50;;;;;;5086561;27;45302;-77
2023/01/17 03:57:37;;;;;;;0.85;0.60;;;14.80;50.50;;;;;;5086721;27;45222;-76
2023/01/17 04:00:05;;;;;;;0.70;0.70;;;14.80;50.50;;;;;;5086012;27;45156;-77
2023/01/17 04:02:32;;;;;;;0.85;0.77;;;14.80;50.50;;;;;;5086297;27;47315;-77
2023/01/17 04:04:58;;;;;;;0.82;0.55;;;14.80;50.50;;;;;;5087411;27;45237;-77
2023/01/17 04:07:25;;;;;;;0.63;0.63;;;14.80;50.50;;;;;;5090085;27;45240;-77
2023/01/17 04:09:53;;;;;;;0.60;0.60;;;14.80;50.50;;;;;;5090312;27;45279;-77
2023/01/17 04:12:20;;;;;;;0.93;0.80;;;14.80;50.50;;;;;;5089713;27;45416;-77
2023/01/17 04:14:52;;;;;;;0.63;0.60;;;14.80;50.50;;;;;;5089845;27;45174;-77
2023/01/17 04:17:19;;;;;;;0.73;0.50;;;14.80;50.40;;;;;;5090091;27;45215;-77
2023/01/17 04:19:46;;;;;;;1.23;0.68;;;14.80;50.40;;;;;;5090067;27;45328;-77
2023/01/17 04:22:13;;;;;;;0.70;0.70;;;14.80;50.40;;;;;;5089388;27;45303;-77
2023/01/17 04:24:39;;;;;;;0.55;0.55;;;14.80;50.50;;;;;;5089339;27;45213;-77
2023/01/17 04:27:09;;;;;;;1.08;0.70;;;14.80;50.50;;;;;;5090025;27;45231;-77
2023/01/17 04:29:36;;;;;;;0.63;0.50;;;14.80;50.50;;;;;;5089956;27;45228;-77
2023/01/17 04:32:03;;;;;;;0.75;0.60;;;14.80;50.40;;;;;;5089608;27;45475;-77
2023/01/17 04:34:29;;;;;;;0.43;0.40;;;14.80;50.50;;;;;;5089432;27;45230;-77
2023/01/17 04:36:56;;;;;;;0.60;0.60;;;14.80;50.50;;;;;;5086826;27;45304;-77
2023/01/17 04:39:23;;;;;;;0.50;0.50;;;14.80;50.50;;;;;;5089712;27;45404;-77
2023/01/17 04:41:50;;;;;;;0.50;0.50;;;14.80;50.50;;;;;;5089123;27;46609;-76
2023/01/17 04:44:18;;;;;;;2.83;0.70;;;14.80;50.50;;;;;;5088567;27;45127;-76
2023/01/17 04:46:45;;;;;;;1.40;0.63;;;14.80;50.40;;;;;;5086764;27;45386;-77
2023/01/17 04:49:12;;;;;;;0.90;0.43;;;14.80;50.40;;;;;;5089640;27;45306;-77
2023/01/17 04:51:38;;;;;;;2.10;0.80;;;14.80;50.50;;;;;;5089316;27;46727;-76
2023/01/17 04:54:05;;;;;;;0.45;0.45;;;14.80;51.00;;;;;;5089089;27;45165;-77
2023/01/17 04:56:32;;;;;;;0.40;0.40;;;14.80;50.50;;;;;;5086673;27;45207;-77
2023/01/17 04:58:59;;;;;;;1.05;0.70;;;14.80;50.40;;;;;;5089339;27;45299;-77
2023/01/17 05:01:27;;;;;;;0.50;0.50;;;14.70;50.40;;;;;;5088895;27;45465;-77
2023/01/17 05:03:54;;;;;;;1.17;0.52;;;14.70;50.40;;;;;;5089122;27;45201;-77
2023/01/17 05:06:20;;;;;;;1.40;0.85;;;14.80;50.40;;;;;;5089052;27;45170;-77
2023/01/17 05:08:47;;;;;;;0.43;0.40;;;14.80;50.40;;;;;;5089237;27;45368;-77
2023/01/17 05:11:14;;;;;;;0.60;0.60;;;14.70;50.30;;;;;;5088905;27;45235;-77
2023/01/17 05:13:41;;;;;;;0.40;0.40;;;14.70;50.30;;;;;;5088937;27;45308;-77
2023/01/17 05:16:08;;;;;;;0.50;0.50;;;14.70;50.30;;;;;;5087800;27;45233;-77
2023/01/17 05:18:36;;;;;;;1.27;0.70;;;14.70;50.30;;;;;;5089176;27;45199;-77
2023/01/17 05:21:03;;;;;;;0.43;0.43;;;14.70;50.30;;;;;;5088819;27;45852;-77
2023/01/17 05:23:31;;;;;;;0.30;0.30;;;14.70;50.30;;;;;;5088426;27;45407;-77
2023/01/17 05:25:58;;;;;;;0.43;0.43;;;14.70;50.30;;;;;;5088137;27;45271;-77
2023/01/17 05:28:24;;;;;;;0.50;0.50;;;14.70;50.30;;;;;;5088646;27;45184;-77
2023/01/17 05:30:51;;;;;;;0.45;0.45;;;14.70;50.30;;;;;;5088458;27;46261;-77
2023/01/17 05:33:18;;;;;;;0.82;0.40;;;14.70;50.30;;;;;;5088635;27;45141;-77
2023/01/17 05:35:46;;;;;;;0.65;0.50;;;14.60;50.30;;;;;;5088637;27;45288;-77
2023/01/17 05:38:13;;;;;;;0.50;0.50;;;14.60;50.30;;;;;;5088793;27;45481;-77
2023/01/17 05:40:40;;;;;;;0.40;0.40;;;14.60;50.20;;;;;;5088376;27;45526;-77
2023/01/17 05:43:07;;;;;;;0.50;0.50;;;14.60;50.20;;;;;;5088466;27;45210;-77
2023/01/17 05:45:33;;;;;;;1.45;0.63;;;14.60;50.20;;;;;;5088532;27;45138;-77
2023/01/17 05:48:00;;;;;;;0.40;0.40;;;14.60;50.20;;;;;;5088555;27;45455;-77
2023/01/17 05:50:28;;;;;;;0.50;0.50;;;14.60;50.20;;;;;;5088345;27;45311;-78
2023/01/17 05:52:58;;;;;;;0.60;0.60;;;14.60;50.20;;;;;;5088196;27;45175;-77
2023/01/17 05:55:25;;;;;;;0.70;0.50;;;14.60;50.20;;;;;;5088511;27;45200;-77
2023/01/17 05:57:52;;;;;;;0.60;0.60;;;14.60;50.10;;;;;;5088384;27;45272;-77
2023/01/17 06:00:19;;;;;;;1.00;0.52;;;14.60;50.10;;;;;;5087963;27;46700;-77
2023/01/17 06:02:46;;;;;;;0.60;0.60;;;14.60;50.10;;;;;;5088032;27;45255;-77
2023/01/17 06:05:13;;;;;;;0.68;0.40;;;14.60;50.10;;;;;;5088174;27;45188;-77
2023/01/17 06:07:42;;;;;;;0.40;0.40;;;14.60;50.10;;;;;;5088102;27;45435;-77
2023/01/17 06:10:11;;;;;;;0.47;0.40;;;14.60;50.20;;;;;;5087073;27;45241;-77
2023/01/17 06:12:38;;;;;;;0.40;0.40;;;14.50;50.10;;;;;;5087191;27;45192;-78
2023/01/17 06:15:06;;;;;;;0.68;0.55;;;14.50;50.00;;;;;;5088024;27;45229;-77
2023/01/17 06:17:32;;;;;;;0.40;0.40;;;14.50;50.00;;;;;;5088314;27;45249;-77
2023/01/17 06:19:59;;;;;;;0.95;0.60;;;14.50;50.10;;;;;;5087748;27;46474;-77
2023/01/17 06:22:26;;;;;;;1.23;0.55;;;14.50;50.10;;;;;;5087587;27;45195;-77
2023/01/17 06:24:53;;;;;;;0.65;0.50;;;14.50;50.10;;;;;;5087781;27;45199;-77
2023/01/17 06:27:21;;;;;;;0.40;0.40;;;14.50;50.10;;;;;;5087469;27;45391;-77
2023/01/17 06:29:48;;;;;;;0.50;0.50;;;14.50;50.10;;;;;;5087519;27;45285;-77
2023/01/17 06:32:15;;;;;;;0.60;0.60;;;14.50;50.10;;;;;;5087514;27;45327;-77
2023/01/17 06:34:41;;;;;;;1.15;0.70;;;14.50;50.00;;;;;;5087852;27;45277;-77
2023/01/17 06:37:08;;;;;;;0.47;0.40;;;14.50;50.00;;;;;;5087741;27;45124;-77
2023/01/17 06:39:35;;;;;;;0.50;0.50;;;14.50;50.10;;;;;;5087161;27;46810;-77
2023/01/17 06:42:02;;;;;;;0.77;0.50;;;14.40;49.90;;;;;;5087038;27;45379;-77
2023/01/17 06:44:30;;;;;;;0.50;0.50;;;14.40;49.90;;;;;;5087302;27;45254;-77
2023/01/17 06:46:57;;;;;;;0.77;0.57;;;14.40;49.90;;;;;;5087656;27;45160;-77
2023/01/17 06:49:24;;;;;;;0.55;0.40;;;14.50;49.90;;;;;;5087196;27;46356;-77
2023/01/17 06:51:50;;;;;;;0.90;0.50;;;14.40;49.80;;;;;;5087176;27;45138;-77
2023/01/17 06:54:17;;;;;;;0.57;0.57;;;14.40;49.80;;;;;;5086760;27;45328;-77
2023/01/17 06:56:44;;;;;;;0.50;0.50;;;14.40;49.80;;;;;;5087481;27;44865;-78
2023/01/17 06:59:11;;;;;;;0.38;0.30;;;14.40;49.70;;;;;;5087338;27;46596;-77
2023/01/17 07:01:40;;;;;;;1.05;0.82;;;14.40;49.80;;;;;;5087082;27;45197;-78
2023/01/17 07:04:07;;;;;;;0.73;0.40;;;14.40;49.60;;;;;;5087259;27;45180;-77
2023/01/17 07:06:35;;;;;;;0.45;0.45;;;14.40;49.60;;;;;;5087435;27;45264;-77
2023/01/17 07:09:03;;;;;;;0.55;0.55;;;14.40;49.70;;;;;;5087206;27;45702;-78
2023/01/17 07:11:29;;;;;;;0.50;0.50;;;14.40;49.70;;;;;;5087130;27;45188;-77
2023/01/17 07:13:56;;;;;;;0.55;0.40;;;14.40;49.60;;;;;;5087217;27;45230;-77
2023/01/17 07:16:23;;;;;;;0.43;0.43;;;14.40;49.60;;;;;;5087284;27;45536;-77
2023/01/17 07:18:53;;;;;;;0.82;0.60;;;14.40;49.60;;;;;;5087020;27;45367;-77
2023/01/17 07:21:20;;;;;;;0.43;0.43;;;14.40;49.50;;;;;;5087080;27;45181;-78
2023/01/17 07:23:48;;;;;;;0.40;0.40;;;14.40;49.60;;;;;;5086740;27;45244;-78
2023/01/17 07:26:16;;;;;;;1.42;0.60;;;14.40;49.50;;;;;;5087309;27;45306;-77
2023/01/17 07:28:42;;;;;;;0.57;0.50;;;14.40;49.50;;;;;;5086855;27;46830;-78
2023/01/17 07:31:09;;;;;;;0.88;0.65;;;14.40;50.00;;;;;;5087019;27;45265;-77
2023/01/17 07:33:36;;;;;;;0.40;0.40;;;14.30;49.30;;;;;;5086892;27;45192;-78
2023/01/17 07:36:06;;;;;;;0.40;0.40;;;14.30;49.40;;;;;;5087114;27;45512;-76
2023/01/17 07:38:32;;;;;;;0.57;0.57;;;14.30;49.40;;;;;;5085991;27;45237;-78
2023/01/17 07:40:59;;;;;;;0.77;0.50;;;14.30;49.30;;;;;;5089432;27;45206;-78
2023/01/17 07:43:26;;;;;;;0.47;0.47;;;14.30;49.40;;;;;;5090412;27;45197;-78
2023/01/17 07:45:53;;;;;;;1.15;0.50;;;14.30;49.30;;;;;;5090644;27;45221;-78
2023/01/17 07:48:20;;;;;;;1.38;0.52;;;14.30;49.30;;;;;;5090052;27;46407;-77
2023/01/17 07:50:51;;;;;;;2.13;0.47;;;14.30;49.30;;;;;;5090199;27;45280;-78
2023/01/17 07:53:20;;;;;;;0.40;0.40;;;14.30;49.30;;;;;;5090323;27;45321;-78
2023/01/17 07:55:47;;;;;;;0.65;0.50;;;14.30;49.30;;;;;;5090502;27;45310;-78
2023/01/17 07:58:14;;;;;;;0.63;0.50;;;14.30;49.30;;;;;;5090020;27;46663;-78
2023/01/17 08:00:42;;;;;;;0.95;0.70;;;14.30;49.20;;;;;;5090025;27;45184;-77
2023/01/17 08:03:12;;;;;;;0.73;0.45;;;14.30;49.20;;;;;;5090168;27;45256;-78
2023/01/17 08:05:39;;;;;;;1.05;0.50;;;14.30;49.20;;;;;;5090421;27;45370;-78
2023/01/17 08:08:06;;;;;;;0.40;0.40;;;14.30;49.20;;;;;;5089809;27;46391;-77
2023/01/17 08:10:34;;;;;;;1.15;0.45;;;14.30;49.10;;;;;;5089886;27;45281;-77
2023/01/17 08:13:01;;;;;;;1.15;0.60;;;14.30;49.10;;;;;;5090142;27;45316;-78
2023/01/17 08:15:27;;;;;;;0.47;0.47;;;14.30;49.10;;;;;;5090053;27;45459;-77
2023/01/17 08:17:56;;;;;;;0.32;0.32;;;14.30;49.00;;;;;;5089599;27;45583;-78
2023/01/17 08:20:23;;;;;;;1.13;0.60;;;14.30;49.10;;;;;;5089843;27;45179;-78
2023/01/17 08:22:53;;;;;;;0.90;0.40;;;14.20;48.90;;;;;;5089396;27;45356;-77
2023/01/17 08:25:20;;;;;;;0.40;0.40;;;14.30;49.00;;;;;;5089136;27;45175;-78
2023/01/17 08:27:48;;;;;;;0.73;0.40;;;14.20;48.90;;;;;;5089613;27;45455;-77
2023/01/17 08:30:15;;;;;;;0.30;0.30;;;14.20;48.90;;;;;;5089592;27;45355;-77
2023/01/17 08:32:41;;;;;;;0.50;0.30;;;14.20;48.90;;;;;;5089707;27;45260;-78
2023/01/17 08:35:09;;;;;;;0.40;0.40;;;14.30;48.80;;;;;;5089688;27;45166;-78
2023/01/17 08:37:37;;;;;;;1.20;0.40;;;14.30;48.80;;;;;;5089366;27;46371;-77
2023/01/17 08:40:04;;;;;;;0.40;0.40;;;14.20;48.70;;;;;;5089509;27;45314;-78
2023/01/17 08:42:36;;;;;;;0.68;0.50;;;14.20;48.80;;;;;;5089531;27;45319;-78
2023/01/17 08:45:05;;;;;;;0.45;0.45;;;14.20;48.80;;;;;;5089830;27;45165;-78
2023/01/17 08:47:32;;;;;;;1.75;0.73;;;14.20;48.60;;;;;;5089353;27;46572;-78
2023/01/17 08:49:59;;;;;;;0.77;0.55;;;14.20;48.70;;;;;;5089502;27;45303;-78
2023/01/17 08:52:26;;;;;;;0.45;0.45;;;14.20;48.60;;;;;;5089006;27;45201;-78
2023/01/17 08:54:53;;;;;;;0.80;0.40;;;14.20;48.50;;;;;;5089309;27;45400;-78
2023/01/17 08:57:20;;;;;;;1.08;0.65;;;14.20;48.60;;;;;;5089181;27;46889;-78
2023/01/17 08:59:46;;;;;;;0.50;0.45;;;14.20;48.60;;;;;;5086524;27;45327;-78
2023/01/17 09:02:15;;;;;;;0.60;0.40;;;14.20;48.60;;;;;;5089375;27;45401;-78
2023/01/17 09:04:44;;;;;;;1.00;0.50;;;14.20;48.60;;;;;;5089583;27;45383;-77
2023/01/17 09:07:10;;;;;;;0.60;0.50;;;14.20;48.60;;;;;;5088789;27;46665;-77
2023/01/17 09:09:37;;;;;;;0.77;0.40;;;14.20;48.50;;;;;;5088390;27;45324;-75
2023/01/17 09:12:05;;;;;;;0.38;0.38;;;14.20;48.60;;;;;;5088439;27;45252;-78
2023/01/17 09:14:32;;;;;;;0.50;0.50;;;14.20;48.50;;;;;;5089271;27;45219;-78
2023/01/17 09:16:59;;;;;;;0.65;0.50;;;14.20;48.50;;;;;;5088840;27;46345;-78
2023/01/17 09:19:27;;;;;;;0.52;0.50;;;14.20;48.40;;;;;;5089010;27;45274;-78
2023/01/17 09:21:54;;;;;;;1.70;0.65;;;14.20;48.40;;;;;;5091471;27;45173;-78
2023/01/17 09:24:21;;;;;;;0.28;0.28;;;14.30;48.40;;;;;;5088891;27;45184;-78
2023/01/17 09:26:47;;;;;;;0.40;0.40;;;14.20;48.40;;;;;;5088937;27;46665;-77
2023/01/17 09:29:16;;;;;;;1.50;0.40;;;14.20;48.40;;;;;;5088684;27;45329;-77
2023/01/17 09:31:43;;;;;;;0.82;0.40;;;14.30;48.50;;;;;;5088961;27;45283;-77
2023/01/17 09:34:10;;;;;;;0.40;0.40;;;14.30;48.60;;;;;;5088959;27;45464;-77
2023/01/17 09:36:38;;;;;;;1.75;0.45;;;14.30;48.50;;;;;;5089362;27;45191;-77
2023/01/17 09:39:06;;;;;;;0.43;0.30;;;14.30;48.50;;;;;;5088386;27;45247;-77
2023/01/17 09:41:34;;;;;;;0.50;0.50;;;14.30;48.50;;;;;;5088471;27;45345;-77
2023/01/17 09:44:04;;;;;;;0.30;0.30;;;14.30;48.50;;;;;;5088531;27;45186;-77
2023/01/17 09:46:32;;;;;;;0.38;0.38;;;14.40;48.60;;;;;;5089005;27;46689;-77
2023/01/17 09:49:03;;;;;;;0.80;0.45;;;14.40;48.60;;;;;;5088509;27;45273;-77
2023/01/17 09:51:30;;;;;;;0.85;0.50;;;14.40;48.50;;;;;;5088603;27;45252;-77
2023/01/17 09:53:59;;;;;;;0.40;0.40;;;14.40;48.50;;;;;;5088424;27;45309;-77
2023/01/17 09:56:28;;;;;;;1.02;0.63;;;14.40;48.50;;;;;;5087609;27;46885;-76
2023/01/17 09:59:15;;;;;;;0.47;0.43;;;14.40;48.40;;;;;;5087448;27;45390;-77
2023/01/17 10:01:44;;;;;;;0.65;0.50;;;14.40;48.40;;;;;;5088201;27;45324;-76
2023/01/17 10:04:19;;;;;;;0.55;0.50;;;14.50;48.50;;;;;;5087403;27;45191;-78
2023/01/17 10:06:54;;;;;;;0.95;0.65;;;14.50;48.40;;;;;;5087286;27;46448;-78
2023/01/17 10:09:46;;;;;;;0.82;0.70;;;14.50;48.40;;;;;;5087233;27;45137;-77
2023/01/17 10:12:20;;;;;;;0.75;0.57;;;14.50;48.40;;;;;;5082719;28;45269;-78
2023/01/17 10:15:06;;;;;;;0.50;0.50;;;14.50;48.40;;;;;;5088242;27;45221;-78
2023/01/17 10:17:38;;;;;;;0.60;0.60;;;14.50;48.40;;;;;;5087816;27;45490;-77
2023/01/17 10:20:18;;;;;;;0.70;0.57;;;14.60;48.40;;;;;;5087866;27;45279;-77
2023/01/17 10:22:54;;;;;;;0.73;0.60;;;14.60;48.40;;;;;;5087858;27;45333;-77
2023/01/17 10:25:32;;;;;;;0.63;0.60;;;14.60;48.50;;;;;;5088080;27;45400;-77
2023/01/17 10:28:00;;;;;;;0.70;0.60;;;14.60;48.40;;;;;;5087807;27;45315;-77
2023/01/17 10:30:30;;;;;;;1.50;0.63;;;14.60;48.40;;;;;;5088223;27;45324;-78
2023/01/17 10:32:56;;;;;;;0.90;0.80;;;14.60;48.50;;;;;;5089562;27;45158;-77
2023/01/17 10:35:26;;;;;;;1.40;0.90;;;14.60;48.40;;;;;;5087617;27;45388;-78
2023/01/17 10:37:55;;;;;;;0.80;0.80;;;14.60;48.40;;;;;;5087302;27;45550;-78
2023/01/17 10:40:24;;;;;;;0.80;0.60;;;14.60;48.40;;;;;;5087948;27;45280;-78
2023/01/17 10:42:56;;;;;;;1.05;0.90;;;14.60;48.40;;;;;;5087783;27;45265;-77
2023/01/17 10:45:27;;;;;;;0.70;0.70;;;14.60;48.30;;;;;;5088597;27;45391;-77
2023/01/17 10:47:58;;;;;;;1.25;0.95;;;14.60;48.40;;;;;;5087573;27;45468;-78
2023/01/17 10:50:24;;;;;;;0.80;0.80;;;14.60;48.30;;;;;;5087761;27;45276;-78
2023/01/17 10:52:54;;;;;;;0.60;0.60;;;14.60;48.30;;;;;;5087518;27;45268;-77
2023/01/17 10:55:27;;;;;;;0.60;0.57;;;14.60;48.40;;;;;;5088157;27;45196;-77
2023/01/17 10:57:56;;;;;;;1.35;0.90;;;14.60;48.40;;;;;;5087534;27;45370;-78
2023/01/17 11:00:42;;;;;;;1.65;0.82;;;14.70;48.40;;;;;;5087638;27;45216;-78
2023/01/17 11:03:10;;;;;;;0.93;0.80;;;14.70;48.40;;;;;;5087546;27;45127;-77
2023/01/17 11:05:36;;;;;;;0.65;0.65;;;14.70;48.40;;;;;;5087599;27;45264;-77
2023/01/17 11:08:05;;;;;;;0.47;0.47;;;14.70;48.40;;;;;;5086971;27;46941;-78
2023/01/17 11:10:43;;;;;;;0.85;0.80;;;14.70;48.40;;;;;;5087347;27;45208;-77
2023/01/17 11:13:29;;;;;;;0.60;0.60;;;14.70;48.40;;;;;;5087443;27;45330;-78
2023/01/17 11:15:57;;;;;;;1.33;1.02;;;14.70;48.40;;;;;;5087380;27;45426;-77
2023/01/17 11:18:26;;;;;;;1.88;0.90;;;14.70;48.40;;;;;;5087691;28;46844;-78
2023/01/17 11:20:53;;;;;;;1.05;0.90;;;14.70;48.40;;;;;;5087604;27;45268;-78
2023/01/17 11:23:20;;;;;;;0.95;0.85;;;14.70;48.40;;;;;;5086982;27;45496;-78
2023/01/17 11:25:51;;;;;;;0.85;0.80;;;14.70;48.40;;;;;;5087092;27;45358;-77
2023/01/17 11:28:24;;;;;;;1.02;0.77;;;14.80;48.40;;;;;;5086990;27;45437;-77
2023/01/17 11:30:54;;;;;;;1.33;0.75;;;14.70;48.40;;;;;;5087177;27;45212;-77
2023/01/17 11:33:43;;;;;;;0.85;0.70;;;14.80;48.40;;;;;;5087570;27;45303;-77
2023/01/17 11:36:16;;;;;;;1.10;0.85;;;14.80;48.40;;;;;;5087112;27;45577;-77
2023/01/17 11:38:57;;;;;;;1.52;0.75;;;14.80;48.30;;;;;;5086760;27;46619;-76
2023/01/17 11:41:24;;;;;;;0.77;0.77;;;14.80;48.30;;;;;;5086826;27;45141;-76
2023/01/17 11:43:52;;;;;;;1.25;0.90;;;14.80;48.40;;;;;;5086962;27;45370;-76
2023/01/17 11:46:20;;;;;;;1.00;0.77;;;14.80;48.40;;;;;;5087067;27;45310;-76
2023/01/17 11:48:50;;;;;;;1.70;1.10;;;14.80;48.30;;;;;;5086962;27;46350;-76
2023/01/17 11:51:19;;;;;;;1.08;0.85;;;14.80;48.40;;;;;;5086554;27;45275;-76
2023/01/17 11:53:47;;;;;;;1.20;1.10;;;14.80;48.30;;;;;;5086821;27;45200;-75
2023/01/17 11:56:19;;;;;;;1.15;1.00;;;14.80;48.30;;;;;;5086677;27;45650;-76
2023/01/17 11:58:46;;;;;;;1.20;0.77;;;14.80;48.30;;;;;;5085967;27;46776;-78
2023/01/17 12:01:33;;;;;;;0.80;0.80;;;14.90;48.40;;;;;;5086007;27;45161;-76
2023/01/17 12:04:10;;;;;;;1.05;1.05;;;14.90;48.40;;;;;;5085737;27;45280;-76
2023/01/17 12:06:39;;;;;;;1.45;1.00;;;14.90;48.40;;;;;;5087932;27;45327;-76
2023/01/17 12:09:11;;;;;;;0.90;0.90;;;14.90;48.40;;;;;;5087700;27;46648;-76
2023/01/17 12:13:59;;;;;;;1.48;0.90;;;14.90;48.40;;;;;;5086793;27;45332;-76
2023/01/17 12:14:35;;;;;;;2.55;1.00;;;14.90;48.50;;;;;;5086402;28;45261;-76
2023/01/17 12:17:07;;;;;;;1.10;1.00;;;14.90;48.50;;;;;;5087027;27;45211;-75
2023/01/17 12:19:40;;;;;;;1.20;1.00;;;14.90;48.50;;;;;;5086022;27;46390;-75
2023/01/17 12:22:24;;;;;;;1.23;1.10;;;14.90;48.60;;;;;;5085599;27;45308;-75
2023/01/17 12:25:02;;;;;;;2.25;1.10;;;14.90;48.60;;;;;;5083944;27;45472;-77
2023/01/17 12:27:33;;;;;;;1.52;1.00;;;14.90;49.20;;;;;;5089893;28;45388;-76
2023/01/17 12:30:17;;;;;;;1.30;1.00;;;14.90;48.60;;;;;;5086669;28;46398;-78
2023/01/17 12:32:58;;;;;;;1.42;1.13;;;14.90;48.60;;;;;;5088195;27;45431;-77
2023/01/17 12:35:27;;;;;;;1.55;1.40;;;14.90;48.60;;;;;;5108943;27;45380;-77
2023/01/17 12:37:55;;;;;;;1.23;1.13;;;14.90;48.60;;;;;;5104251;27;45508;-78
2023/01/17 12:40:24;;;;;;;3.33;1.30;;;14.90;48.60;;;;;;5088805;27;45350;-76
2023/01/17 12:42:53;;;;;;;1.45;1.10;;;14.90;48.50;;;;;;5084670;27;45459;-77
2023/01/17 12:45:23;;;;;;;1.65;1.27;;;14.90;49.20;;;;;;5089300;27;45376;-77
2023/01/17 12:47:54;;;;;;;1.63;1.30;;;14.90;48.60;;;;;;5106780;27;45516;-79
2023/01/17 12:50:23;;;;;;;5.60;1.70;;;14.90;48.60;;;;;;5086341;27;45547;-79
2023/01/17 12:52:53;;;;;;;2.38;1.52;;;14.90;48.60;;;;;;5085928;28;45483;-76
2023/01/17 12:55:22;;;;;;;2.90;1.73;;;14.90;48.60;;;;;;5069119;28;45204;-79
2023/01/17 12:57:51;;;;;;;1.60;1.30;;;15.00;48.60;;;;;;5069286;28;45233;-79
2023/01/17 13:00:21;;;;;;;2.15;1.50;;;15.00;48.50;;;;;;5068818;28;45708;-77
2023/01/17 13:02:51;;;;;;;2.13;1.40;;;15.00;48.50;;;;;;5069028;28;45300;-79
2023/01/17 13:05:22;;;;;;;2.83;1.58;;;15.00;48.60;;;;;;5069026;28;45249;-79
2023/01/17 13:07:51;;;;;;;1.13;1.02;;;15.00;48.60;;;;;;5068928;28;45348;-78
2023/01/17 13:10:23;;;;;;;2.05;1.40;;;15.00;48.50;;;;;;5067870;28;46364;-79
2023/01/17 13:12:50;;;;;;;1.77;1.20;;;15.00;48.50;;;;;;5067853;28;45380;-77
2023/01/17 13:15:18;;;;;;;3.70;1.30;;;15.00;48.50;;;;;;5068819;28;45181;-78
2023/01/17 13:17:46;;;;;;;1.42;0.95;;;15.00;48.50;;;;;;5068978;28;45491;-79
2023/01/17 13:20:17;;;;;;;1.73;1.40;;;15.00;48.50;;;;;;5068385;28;45479;-79
2023/01/17 13:22:45;;;;;;;3.05;1.60;;;15.00;48.50;;;;;;5068740;28;45213;-79
2023/01/17 13:25:19;;;;;;;2.70;1.60;;;15.00;48.40;;;;;;5068770;28;44768;-79
2023/01/17 13:28:01;;;;;;;1.73;1.10;;;15.00;48.40;;;;;;5068944;28;45516;-79
2023/01/17 13:30:36;;;;;;;1.90;1.30;;;15.00;48.40;;;;;;5068346;28;45626;-79
2023/01/17 13:33:28;;;;;;;1.70;1.30;;;15.10;48.50;;;;;;5065939;28;45146;-79
2023/01/17 13:36:02;;;;;;;1.48;1.27;;;15.10;48.40;;;;;;5068737;28;45323;-79
2023/01/17 13:38:53;;;;;;;2.53;1.42;;;15.10;48.50;;;;;;5067725;28;45261;-79
2023/01/17 13:41:45;;;;;;;2.38;1.20;;;15.10;48.50;;;;;;5068193;28;45219;-79
2023/01/17 13:44:23;;;;;;;2.65;1.30;;;15.00;48.50;;;;;;5060375;28;45209;-79
2023/01/17 13:46:57;;;;;;;1.77;1.30;;;15.00;48.50;;;;;;5068022;28;45225;-78
2023/01/17 13:49:32;;;;;;;1.30;1.20;;;15.10;48.50;;;;;;5067875;28;45491;-78
2023/01/17 13:52:02;;;;;;;1.48;1.38;;;15.10;48.60;;;;;;5067435;28;46656;-78
2023/01/17 13:54:33;;;;;;;2.17;1.35;;;15.00;48.50;;;;;;5067237;28;45286;-79
2023/01/17 13:57:35;;;;;;;2.03;1.45;;;15.00;48.60;;;;;;5068015;28;45220;-79
2023/01/17 14:00:33;;;;;;;1.88;1.20;;;15.10;48.60;;;;;;5068569;28;45210;-79
2023/01/17 14:03:00;;;;;;;1.90;1.55;;;15.10;48.60;;;;;;5068682;27;46388;-79
2023/01/17 14:05:46;;;;;;;1.60;1.23;;;15.10;48.70;;;;;;5067758;28;45311;-79
2023/01/17 14:08:13;;;;;;;1.42;1.33;;;15.10;48.60;;;;;;5067949;28;45283;-78
2023/01/17 14:10:42;;;;;;;2.50;1.50;;;15.00;48.60;;;;;;5068065;28;45455;-78
2023/01/17 14:13:25;;;;;;;1.30;1.10;;;15.00;48.60;;;;;;5067485;28;46646;-79
2023/01/17 14:15:52;;;;;;;1.40;1.30;;;15.10;48.70;;;;;;5067554;28;45248;-79
2023/01/17 14:18:31;;;;;;;2.13;1.27;;;15.10;48.70;;;;;;5067680;28;45253;-79